Airfield :
LOGIN :

Register | Disclaimer

   EN    FR    IT 

 










Legend :    VFR   Marginal VFR   IFR   Intensive IFR   Very Intensive IFR
Visi :
Ceiling :
>= 8 km
>= 3000ft
5 to 8 km
1000 to 3000 ft
1500m to 5 km
500 to 1000 ft
800 to 1500m
200 to 500 ft
< 800m
< 200 ft
Symbols :   Thunderstorms  Fog  Heavy snow  Heavy precipitations  Wind > 20 kt
SIGMETs :     Misc.  Thunderstorms  Icing  Turbulence  Mountain Waves  Volcanic Ashes







- Airport Elevation : 400 ft
- IATA code : BNX


LQBK - Banja Luka

CURRENT METAR :
  • 210930Z VRB03KT CAVOK 28/18 Q1012 NOSIG

EXPIRED METARs :
  • 210900Z 15003KT 090V230 CAVOK 28/18 Q1012 NOSIG
  • 210830Z 15004KT 080V210 CAVOK 27/18 Q1012 NOSIG
  • 210800Z VRB02KT CAVOK 26/18 Q1012 NOSIG
  • 210730Z VRB02KT CAVOK 24/18 Q1012 NOSIG
  • 210700Z VRB02KT CAVOK 23/18 Q1013 NOSIG

TAF TAF LQBK
Valid from the 21 at 06:00 until the 22 at 06:00 UTC


210500Z 2106/2206 16005KT CAVOK TX33/2113Z TN18/2203Z
PROB30
TEMPO 2115/2120 TS FEW040CB
PROB40
TEMPO 2200/2203 TSRA FEW035CB SCT040
No reported NOTAMs for that airfield.



MET'MAP, your aeronautical weather chart ! - Copyright ORBIFLY December 2007 - Disclaimer

ORBIFLY MET'MAP TEAM :

Programming & Development : Alexandra Zaïnal
Concept & Development : Baudouin d'Aumeries
Co-Development & Prog : Marc-Olivier Méhu
Technical & hardware support : Manuel Goepfert

Contact : metmap@orbifly.com




SOURCES & CREDITS :

   NOAA